Karla A — TCCR8 — position and weather

sailwx.info

Track history (hours):
 
Tides and Currents Weather Stations Pressure Air Temp Water Temp Dewpoint Dewpoint Depression Visibility Wind Speed Wind Dir Waves Ship Positions

Karla A

Last reported at 2015-Jul-31 01:31 UTC. Time now 2015-Aug-04 17:57 UTC.
Position N 46°29' E 030°45'.

Length 667 m; draft 6.9 m.

Type: Ship (hazmat cat D). MMSI: 271000744.

Date/timePositionNaut miles runAvg speedWind from/ knotsBaromVisibWave heightAir tempDewpointWater temp
2015-Jul-31 01:31N 46°29' E 030°45'4 3.8
2015-Jul-31 00:23N 46°29' E 030°52'0 0.1
2015-Jul-30 23:31N 46°29' E 030°51'0 0.0
2015-Jul-30 22:33N 46°29' E 030°51'0 0.1
2015-Jul-30 21:33N 46°29' E 030°52'0 0.0
2015-Jul-30 20:32N 46°29' E 030°52'0 0.0
2015-Jul-30 19:32N 46°29' E 030°52'0 0.0
2015-Jul-30 18:32N 46°29' E 030°52'0 0.0
2015-Jul-30 17:31N 46°29' E 030°52'0 0.0
2015-Jul-30 16:33N 46°29' E 030°52'0 0.0
2015-Jul-30 15:14N 46°29' E 030°52'0 0.1
2015-Jul-30 12:30N 46°29' E 030°52'8 8.4
2015-Jul-30 11:34N 46°21' E 030°53'1211.9
2015-Jul-30 10:33N 46°12' E 031°04'1111.2
2015-Jul-30 09:32N 46°00' E 031°05'2512.3
2015-Jul-30 07:33N 45°37' E 030°54'1212.2
2015-Jul-30 06:32N 45°25' E 030°48'1212.4
2015-Jul-30 05:33N 45°14' E 030°42'1313.1
2015-Jul-30 04:34N 45°02' E 030°36'18215.1
2015-Jul-29 16:31N 42°06' E 029°29'1914.8
2015-Jul-29 15:14N 41°48' E 029°22'  
2015-Jul-26 04:34N 37°46' E 025°47'1414.5
2015-Jul-26 03:33N 37°32' E 025°48'1413.9
2015-Jul-26 02:33N 37°20' E 025°57'1414.0
2015-Jul-26 01:32N 37°07' E 026°06'1313.6
2015-Jul-26 00:33N 36°56' E 026°14'1414.0
2015-Jul-25 23:33N 36°46' E 026°27'1414.1
2015-Jul-25 22:33N 36°37' E 026°40'1413.9
2015-Jul-25 21:33N 36°26' E 026°51'2814.2
2015-Jul-25 19:33N 36°04' E 027°14'1413.6
2015-Jul-25 18:33N 35°54' E 027°24'1413.6
2015-Jul-25 17:32N 35°42' E 027°34'1913.6
2015-Jul-25 16:07N 35°28' E 027°50'813.5
2015-Jul-25 15:33N 35°22' E 027°57'12613.4
2015-Jul-25 06:10N 33°49' E 029°39'813.5
2015-Jul-25 05:34N 33°43' E 029°45'1413.6
2015-Jul-25 04:33N 33°32' E 029°56'1613.9
2015-Jul-25 03:26N 33°21' E 030°09'6914.2
2015-Jul-24 22:34N 32°30' E 031°04'3414.2
2015-Jul-24 20:09N 32°04' E 031°31'1314.1
2015-Jul-24 19:11N 31°54' E 031°42'913.7
2015-Jul-24 18:33N 31°48' E 031°50'1313.3
2015-Jul-24 17:34N 31°41' E 032°03'1613.4
2015-Jul-24 16:22N 31°31' E 032°17'1011.9
2015-Jul-24 15:34N 31°22' E 032°22'8 2.6
2015-Jul-24 12:29N 31°15' E 032°18'0 0.0
2015-Jul-24 11:32N 31°15' E 032°18'0 0.0
2015-Jul-24 01:22N 31°15' E 032°18'7 1.1
2015-Jul-23 18:31N 31°21' E 032°21'3 1.1
2015-Jul-23 15:33N 31°22' E 032°17'0 0.0
2015-Jul-23 14:32N 31°22' E 032°17'0 0.0
2015-Jul-23 13:32N 31°22' E 032°17'3 2.9
2015-Jul-23 12:33N 31°22' E 032°21'9 9.2
2015-Jul-23 11:34N 31°13' E 032°21'0 0.1
2015-Jul-23 10:33N 31°13' E 032°21'0 0.0
2015-Jul-23 09:32N 31°13' E 032°21'0 0.0
2015-Jul-23 08:32N 31°13' E 032°21'0 0.0
2015-Jul-23 07:32N 31°13' E 032°21'0 0.0
2015-Jul-23 06:28N 31°13' E 032°21'0 0.0
2015-Jul-23 05:16N 31°13' E 032°21'0 0.0
2015-Jul-23 04:34N 31°13' E 032°21'0 0.0
2015-Jul-23 01:20N 31°13' E 032°21'0 0.0
2015-Jul-23 00:32N 31°13' E 032°21'0 0.0
2015-Jul-22 23:31N 31°13' E 032°21'0 0.0
2015-Jul-22 22:31N 31°13' E 032°21'0 0.0
2015-Jul-22 21:34N 31°13' E 032°21'0 0.0
2015-Jul-22 20:21N 31°13' E 032°21'0 0.0
2015-Jul-22 19:30N 31°13' E 032°21'0 0.0
2015-Jul-22 18:29N 31°13' E 032°21'0 0.0
2015-Jul-22 12:30N 31°13' E 032°21'10 1.0
2015-Jul-22 02:32N 31°22' E 032°17'0 0.0
2015-Jul-21 15:30N 31°22' E 032°17'0 0.0
2015-Jul-21 14:21N 31°22' E 032°17'0 0.0
2015-Jul-21 13:33N 31°22' E 032°17'8 8.0
2015-Jul-21 12:33N 31°30' E 032°15'1712.8
2015-Jul-21 11:16N 31°41' E 032°01'1011.0
2015-Jul-21 10:21N 31°39' E 031°50'  
Track history (hours):
 
Tides and Currents Weather Stations Pressure Air Temp Water Temp Dewpoint Dewpoint Depression Visibility Wind Speed Wind Dir Waves Ship Positions

Karla A

Last reported at 2015-Jul-31 01:31 UTC. Time now 2015-Aug-04 17:57 UTC.
Position N 46°29' E 030°45'.

Length 667 m; draft 6.9 m.

Type: Ship (hazmat cat D). MMSI: 271000744.

Date/timePositionNaut miles runAvg speedWind from/ knotsBaromVisibWave heightAir tempDewpointWater temp
2015-Jul-31 01:31N 46°29' E 030°45'4 3.8
2015-Jul-31 00:23N 46°29' E 030°52'0 0.1
2015-Jul-30 23:31N 46°29' E 030°51'0 0.0
2015-Jul-30 22:33N 46°29' E 030°51'0 0.1
2015-Jul-30 21:33N 46°29' E 030°52'0 0.0
2015-Jul-30 20:32N 46°29' E 030°52'0 0.0
2015-Jul-30 19:32N 46°29' E 030°52'0 0.0
2015-Jul-30 18:32N 46°29' E 030°52'0 0.0
2015-Jul-30 17:31N 46°29' E 030°52'0 0.0
2015-Jul-30 16:33N 46°29' E 030°52'0 0.0
2015-Jul-30 15:14N 46°29' E 030°52'0 0.1
2015-Jul-30 12:30N 46°29' E 030°52'8 8.4
2015-Jul-30 11:34N 46°21' E 030°53'1211.9
2015-Jul-30 10:33N 46°12' E 031°04'1111.2
2015-Jul-30 09:32N 46°00' E 031°05'2512.3
2015-Jul-30 07:33N 45°37' E 030°54'1212.2
2015-Jul-30 06:32N 45°25' E 030°48'1212.4
2015-Jul-30 05:33N 45°14' E 030°42'1313.1
2015-Jul-30 04:34N 45°02' E 030°36'18215.1
2015-Jul-29 16:31N 42°06' E 029°29'1914.8
2015-Jul-29 15:14N 41°48' E 029°22'  
2015-Jul-26 04:34N 37°46' E 025°47'1414.5
2015-Jul-26 03:33N 37°32' E 025°48'1413.9
2015-Jul-26 02:33N 37°20' E 025°57'1414.0
2015-Jul-26 01:32N 37°07' E 026°06'1313.6
2015-Jul-26 00:33N 36°56' E 026°14'1414.0
2015-Jul-25 23:33N 36°46' E 026°27'1414.1
2015-Jul-25 22:33N 36°37' E 026°40'1413.9
2015-Jul-25 21:33N 36°26' E 026°51'2814.2
2015-Jul-25 19:33N 36°04' E 027°14'1413.6
2015-Jul-25 18:33N 35°54' E 027°24'1413.6
2015-Jul-25 17:32N 35°42' E 027°34'1913.6
2015-Jul-25 16:07N 35°28' E 027°50'813.5
2015-Jul-25 15:33N 35°22' E 027°57'12613.4
2015-Jul-25 06:10N 33°49' E 029°39'813.5
2015-Jul-25 05:34N 33°43' E 029°45'1413.6
2015-Jul-25 04:33N 33°32' E 029°56'1613.9
2015-Jul-25 03:26N 33°21' E 030°09'6914.2
2015-Jul-24 22:34N 32°30' E 031°04'3414.2
2015-Jul-24 20:09N 32°04' E 031°31'1314.1
2015-Jul-24 19:11N 31°54' E 031°42'913.7
2015-Jul-24 18:33N 31°48' E 031°50'1313.3
2015-Jul-24 17:34N 31°41' E 032°03'1613.4
2015-Jul-24 16:22N 31°31' E 032°17'1011.9
2015-Jul-24 15:34N 31°22' E 032°22'8 2.6
2015-Jul-24 12:29N 31°15' E 032°18'0 0.0
2015-Jul-24 11:32N 31°15' E 032°18'0 0.0
2015-Jul-24 01:22N 31°15' E 032°18'7 1.1
2015-Jul-23 18:31N 31°21' E 032°21'3 1.1
2015-Jul-23 15:33N 31°22' E 032°17'0 0.0
2015-Jul-23 14:32N 31°22' E 032°17'0 0.0
2015-Jul-23 13:32N 31°22' E 032°17'3 2.9
2015-Jul-23 12:33N 31°22' E 032°21'9 9.2
2015-Jul-23 11:34N 31°13' E 032°21'0 0.1
2015-Jul-23 10:33N 31°13' E 032°21'0 0.0
2015-Jul-23 09:32N 31°13' E 032°21'0 0.0
2015-Jul-23 08:32N 31°13' E 032°21'0 0.0
2015-Jul-23 07:32N 31°13' E 032°21'0 0.0
2015-Jul-23 06:28N 31°13' E 032°21'0 0.0
2015-Jul-23 05:16N 31°13' E 032°21'0 0.0
2015-Jul-23 04:34N 31°13' E 032°21'0 0.0
2015-Jul-23 01:20N 31°13' E 032°21'0 0.0
2015-Jul-23 00:32N 31°13' E 032°21'0 0.0
2015-Jul-22 23:31N 31°13' E 032°21'0 0.0
2015-Jul-22 22:31N 31°13' E 032°21'0 0.0
2015-Jul-22 21:34N 31°13' E 032°21'0 0.0
2015-Jul-22 20:21N 31°13' E 032°21'0 0.0
2015-Jul-22 19:30N 31°13' E 032°21'0 0.0
2015-Jul-22 18:29N 31°13' E 032°21'0 0.0
2015-Jul-22 12:30N 31°13' E 032°21'10 1.0
2015-Jul-22 02:32N 31°22' E 032°17'0 0.0
2015-Jul-21 15:30N 31°22' E 032°17'0 0.0
2015-Jul-21 14:21N 31°22' E 032°17'0 0.0
2015-Jul-21 13:33N 31°22' E 032°17'8 8.0
2015-Jul-21 12:33N 31°30' E 032°15'1712.8
2015-Jul-21 11:16N 31°41' E 032°01'1011.0
2015-Jul-21 10:21N 31°39' E 031°50'  

Dump ship's entire track history